createdAt,value
2022-12-14T00:01:41.075Z,63.28
2022-12-14T00:04:08.644Z,63.70
2022-12-14T00:06:36.246Z,63.39
2022-12-14T00:09:05.650Z,63.72
2022-12-14T00:11:33.735Z,63.70
2022-12-14T00:14:04.967Z,63.75
2022-12-14T00:16:34.498Z,63.99
2022-12-14T00:19:03.076Z,63.80
2022-12-14T00:21:30.907Z,63.48
2022-12-14T00:23:59.724Z,63.83
2022-12-14T00:26:29.193Z,63.50
2022-12-14T00:28:57.088Z,63.96
2022-12-14T00:31:26.762Z,63.84
2022-12-14T00:33:55.376Z,64.08
2022-12-14T00:36:24.301Z,63.92
2022-12-14T00:38:52.021Z,64.16
2022-12-14T00:41:20.357Z,63.60
2022-12-14T00:43:49.185Z,63.71
2022-12-14T00:46:17.326Z,63.88
2022-12-14T00:48:46.462Z,63.75
2022-12-14T00:51:14.788Z,63.54
2022-12-14T00:53:42.912Z,63.61
2022-12-14T00:56:11.500Z,63.65
2022-12-14T00:58:39.053Z,63.87
2022-12-14T01:01:08.861Z,63.72
2022-12-14T01:03:36.661Z,63.87
2022-12-14T01:06:05.756Z,63.90
2022-12-14T01:08:36.365Z,63.74
2022-12-14T01:11:06.285Z,63.73
2022-12-14T01:13:34.083Z,63.63
2022-12-14T01:16:06.935Z,64.16
2022-12-14T01:18:35.899Z,63.81
2022-12-14T01:21:16.722Z,63.80
2022-12-14T01:23:45.209Z,64.02
2022-12-14T01:26:13.274Z,63.81
2022-12-14T01:28:41.068Z,64.07
2022-12-14T01:31:09.914Z,64.20
2022-12-14T01:33:37.761Z,63.97
2022-12-14T01:36:07.225Z,64.05
2022-12-14T01:38:36.477Z,64.26
2022-12-14T01:41:05.147Z,64.49
2022-12-14T01:43:50.107Z,64.37
2022-12-14T01:46:21.405Z,64.49
2022-12-14T01:48:51.442Z,64.38
2022-12-14T01:51:19.259Z,64.38
2022-12-14T01:53:48.505Z,64.29
2022-12-14T01:56:17.856Z,64.29
2022-12-14T01:58:45.427Z,64.35
2022-12-14T02:01:13.119Z,63.93
2022-12-14T02:03:46.024Z,64.36
2022-12-14T02:06:18.603Z,64.10
2022-12-14T02:08:51.691Z,64.48
2022-12-14T02:11:29.074Z,64.45
2022-12-14T02:13:56.569Z,64.44
2022-12-14T02:16:24.439Z,64.58
2022-12-14T02:18:52.023Z,64.26
2022-12-14T02:21:24.994Z,64.36
2022-12-14T02:24:39.033Z,64.41
2022-12-14T02:27:16.272Z,64.58
2022-12-14T02:29:53.968Z,64.29
2022-12-14T02:32:43.207Z,64.25
2022-12-14T02:35:18.639Z,64.35
2022-12-14T02:37:53.630Z,64.83
2022-12-14T02:40:29.375Z,64.52
2022-12-14T02:43:07.844Z,64.95
2022-12-14T02:45:43.287Z,64.92
2022-12-14T02:48:17.224Z,64.60
2022-12-14T02:50:54.752Z,65.04
2022-12-14T02:53:28.757Z,64.48
2022-12-14T02:56:02.039Z,64.40
2022-12-14T02:58:34.480Z,64.37
2022-12-14T03:01:04.876Z,64.46
2022-12-14T03:03:32.554Z,64.36
2022-12-14T03:06:01.964Z,64.87
2022-12-14T03:08:34.207Z,64.74
2022-12-14T03:11:04.967Z,64.65
2022-12-14T03:13:37.626Z,64.95
2022-12-14T03:16:13.849Z,64.73
2022-12-14T03:18:47.513Z,64.68
2022-12-14T03:21:19.869Z,64.82
2022-12-14T03:23:50.723Z,64.81
2022-12-14T03:26:23.345Z,64.91
2022-12-14T03:28:54.240Z,65.02
2022-12-14T03:31:27.483Z,65.03
2022-12-14T03:33:57.965Z,65.28
2022-12-14T03:36:29.853Z,65.62
2022-12-14T03:39:01.378Z,65.71
2022-12-14T03:41:34.299Z,65.95
2022-12-14T03:44:14.325Z,66.10
2022-12-14T03:46:52.774Z,66.34
2022-12-14T03:49:25.232Z,65.80
2022-12-14T03:52:01.926Z,66.14
2022-12-14T03:54:39.430Z,66.38
2022-12-14T03:57:15.922Z,65.96
2022-12-14T03:59:53.754Z,66.17
2022-12-14T04:02:27.832Z,66.38
2022-12-14T04:05:04.068Z,66.62
2022-12-14T04:07:38.351Z,66.75
2022-12-14T04:10:32.789Z,66.23
2022-12-14T04:13:24.063Z,66.49
2022-12-14T04:16:18.069Z,66.56
2022-12-14T04:19:00.963Z,66.39
2022-12-14T04:21:37.994Z,66.37
2022-12-14T04:24:31.056Z,66.38
2022-12-14T04:27:03.231Z,65.85
2022-12-14T04:29:52.811Z,66.18
2022-12-14T04:32:26.158Z,65.81
2022-12-14T04:35:02.565Z,65.96
2022-12-14T04:37:31.569Z,65.88
2022-12-14T04:40:05.380Z,65.74
2022-12-14T04:42:36.735Z,65.94
2022-12-14T04:45:09.267Z,65.94
2022-12-14T04:47:42.023Z,65.44
2022-12-14T04:50:13.945Z,65.58
2022-12-14T04:52:46.760Z,65.16
2022-12-14T04:55:18.459Z,65.49
2022-12-14T04:57:51.733Z,65.60
2022-12-14T05:00:19.503Z,65.38
2022-12-14T05:03:05.555Z,66.09
2022-12-14T05:05:39.664Z,65.63
2022-12-14T05:08:12.454Z,65.15
2022-12-14T05:10:42.067Z,65.89
2022-12-14T05:13:15.534Z,65.76
2022-12-14T05:15:46.425Z,65.46
2022-12-14T05:18:14.814Z,65.48
2022-12-14T05:20:43.787Z,65.63
2022-12-14T05:23:11.341Z,65.68
2022-12-14T05:25:38.866Z,65.94
2022-12-14T05:28:08.434Z,65.78
2022-12-14T05:30:37.012Z,66.10
2022-12-14T05:33:05.405Z,65.96
2022-12-14T05:35:33.197Z,66.10
2022-12-14T05:38:02.195Z,66.18
2022-12-14T05:40:29.810Z,66.18
2022-12-14T05:43:05.764Z,66.52
2022-12-14T05:45:33.304Z,66.47
2022-12-14T05:48:01.052Z,66.43
2022-12-14T05:50:29.027Z,66.30
2022-12-14T05:52:56.826Z,66.20
2022-12-14T05:55:25.840Z,66.45
2022-12-14T05:57:53.380Z,66.45
2022-12-14T06:00:21.742Z,66.42
2022-12-14T06:02:49.409Z,66.30
2022-12-14T06:05:17.333Z,66.26
2022-12-14T06:07:45.012Z,66.14
2022-12-14T06:10:12.550Z,66.41
2022-12-14T06:12:41.541Z,66.20
2022-12-14T06:15:09.739Z,66.10
2022-12-14T06:17:37.504Z,66.10
2022-12-14T06:20:06.369Z,65.85
2022-12-14T06:22:34.302Z,65.91
2022-12-14T06:25:04.424Z,66.12
2022-12-14T06:27:35.011Z,66.04
2022-12-14T06:30:04.036Z,66.19
2022-12-14T06:32:31.719Z,66.12
2022-12-14T06:34:59.316Z,66.21
2022-12-14T06:37:26.894Z,66.22
2022-12-14T06:39:54.954Z,66.41
2022-12-14T06:42:26.256Z,66.37
2022-12-14T06:44:54.107Z,66.22
2022-12-14T06:47:23.448Z,66.33
2022-12-14T06:49:51.528Z,66.74
2022-12-14T06:52:24.968Z,66.54
2022-12-14T06:54:54.440Z,66.54
2022-12-14T06:57:21.981Z,66.88
2022-12-14T06:59:49.667Z,66.80
2022-12-14T07:02:21.179Z,67.02
2022-12-14T07:04:50.557Z,66.65
2022-12-14T07:07:18.747Z,66.84
2022-12-14T07:09:48.459Z,67.44
2022-12-14T07:12:16.410Z,67.21
2022-12-14T07:14:43.951Z,67.57
2022-12-14T07:17:11.454Z,67.71
2022-12-14T07:19:38.987Z,67.89
2022-12-14T07:22:07.983Z,68.18
2022-12-14T07:24:35.599Z,68.37
2022-12-14T07:27:03.307Z,68.52
2022-12-14T07:29:34.859Z,68.39
2022-12-14T07:32:02.754Z,68.59
2022-12-14T07:34:30.343Z,68.66
2022-12-14T07:36:57.851Z,68.81
2022-12-14T07:39:27.722Z,69.14
2022-12-14T07:41:56.188Z,68.94
2022-12-14T07:44:23.719Z,69.04
2022-12-14T07:46:51.354Z,69.06
2022-12-14T07:49:18.978Z,69.00
2022-12-14T07:51:46.711Z,69.26
2022-12-14T07:54:15.447Z,69.68
2022-12-14T07:56:44.641Z,69.33
2022-12-14T07:59:15.914Z,69.35
2022-12-14T08:01:44.279Z,69.27
2022-12-14T08:04:13.948Z,69.17
2022-12-14T08:06:42.182Z,69.26
2022-12-14T08:09:12.652Z,69.07
2022-12-14T08:11:40.716Z,69.11
2022-12-14T08:14:13.516Z,69.56
2022-12-14T08:16:41.013Z,69.92
2022-12-14T08:19:08.672Z,69.12
2022-12-14T08:21:36.211Z,69.29
2022-12-14T08:24:03.822Z,69.51
2022-12-14T08:26:35.548Z,69.39
2022-12-14T08:29:04.596Z,69.59
2022-12-14T08:31:34.672Z,69.79
2022-12-14T08:34:02.977Z,69.64
2022-12-14T08:36:32.726Z,69.90
2022-12-14T08:39:02.096Z,70.06
2022-12-14T08:41:30.120Z,70.33
2022-12-14T08:43:59.036Z,70.43
2022-12-14T08:46:28.733Z,70.29
2022-12-14T08:48:58.158Z,70.10
2022-12-14T08:51:26.622Z,70.14
2022-12-14T08:53:55.110Z,70.19
2022-12-14T08:56:25.233Z,69.99
2022-12-14T08:58:53.590Z,70.06
2022-12-14T09:01:28.186Z,70.14
2022-12-14T09:04:05.377Z,70.16
2022-12-14T09:06:34.901Z,69.99
2022-12-14T09:09:02.491Z,69.89
2022-12-14T09:11:30.145Z,69.90
2022-12-14T09:13:58.101Z,69.79
2022-12-14T09:16:27.140Z,69.86
2022-12-14T09:18:55.548Z,70.10
2022-12-14T09:21:25.006Z,70.29
2022-12-14T09:23:57.506Z,70.22
2022-12-14T09:26:27.204Z,70.29
2022-12-14T09:28:57.421Z,70.35
2022-12-14T09:31:27.283Z,70.42
2022-12-14T09:33:56.616Z,70.26
2022-12-14T09:36:29.124Z,70.49
2022-12-14T09:38:57.745Z,70.42
2022-12-14T09:41:36.297Z,70.61
2022-12-14T09:44:13.132Z,70.36
2022-12-14T09:46:57.198Z,70.71
2022-12-14T09:49:29.064Z,70.48
2022-12-14T09:52:01.205Z,70.40
2022-12-14T09:54:32.930Z,70.24
2022-12-14T09:57:05.722Z,70.12
2022-12-14T09:59:33.988Z,70.32
2022-12-14T10:02:31.384Z,70.51
2022-12-14T10:05:24.743Z,70.04
2022-12-14T10:08:02.823Z,70.13
2022-12-14T10:10:41.231Z,70.17
2022-12-14T10:13:20.209Z,70.08
2022-12-14T10:15:58.001Z,70.30
2022-12-14T10:19:00.707Z,70.61
2022-12-14T10:21:42.255Z,70.33
2022-12-14T10:24:18.493Z,70.52
2022-12-14T10:26:51.245Z,70.69
2022-12-14T10:29:22.660Z,71.11
2022-12-14T10:32:00.094Z,70.72
2022-12-14T10:34:30.804Z,70.52
2022-12-14T10:37:10.202Z,71.15
2022-12-14T10:39:49.604Z,71.18
2022-12-14T10:42:23.142Z,71.21
2022-12-14T10:45:39.575Z,71.40
2022-12-14T10:47:53.561Z,71.34
2022-12-14T10:50:30.337Z,71.50
2022-12-14T10:52:59.527Z,71.22
2022-12-14T10:55:31.908Z,71.52
2022-12-14T10:57:59.432Z,71.49
2022-12-14T11:00:27.168Z,71.70
2022-12-14T11:02:56.768Z,71.76
2022-12-14T11:05:36.930Z,72.18
2022-12-14T11:08:06.648Z,71.58
2022-12-14T11:10:39.249Z,71.92
2022-12-14T11:13:16.098Z,71.90
2022-12-14T11:15:45.559Z,71.85
2022-12-14T11:18:28.083Z,72.42
2022-12-14T11:20:57.712Z,71.91
2022-12-14T11:23:27.628Z,71.89
2022-12-14T11:26:00.179Z,72.45
2022-12-14T11:28:37.587Z,72.00
2022-12-14T11:31:08.525Z,72.22
2022-12-14T11:33:50.191Z,72.63
2022-12-14T11:36:25.582Z,72.29
2022-12-14T11:38:57.441Z,72.14
2022-12-14T11:41:30.104Z,72.23
2022-12-14T11:44:06.821Z,72.16
2022-12-14T11:46:46.668Z,72.39
2022-12-14T11:49:27.172Z,72.41
2022-12-14T11:51:56.643Z,72.09
2022-12-14T11:54:24.185Z,72.10
2022-12-14T11:56:57.516Z,72.37
2022-12-14T11:59:29.943Z,72.45
2022-12-14T12:01:57.771Z,72.47
2022-12-14T12:04:26.191Z,72.63
2022-12-14T12:06:55.654Z,72.83
2022-12-14T12:09:31.149Z,72.80
2022-12-14T12:12:00.139Z,72.69
2022-12-14T12:14:34.133Z,72.64
2022-12-14T12:17:02.352Z,72.44
2022-12-14T12:19:34.554Z,72.77
2022-12-14T12:22:03.473Z,72.61
2022-12-14T12:24:41.682Z,72.73
2022-12-14T12:27:19.712Z,72.87
2022-12-14T12:29:51.389Z,72.89
2022-12-14T12:32:23.375Z,72.90
2022-12-14T12:35:01.403Z,73.05
2022-12-14T12:37:38.038Z,72.58
2022-12-14T12:40:15.987Z,72.85
2022-12-14T12:42:49.534Z,73.00
2022-12-14T12:45:21.839Z,72.92
2022-12-14T12:47:53.266Z,72.72
2022-12-14T12:50:23.803Z,72.74
2022-12-14T12:53:03.226Z,72.87
2022-12-14T12:55:36.628Z,73.03
2022-12-14T12:58:09.785Z,73.23
2022-12-14T13:00:39.785Z,72.99
2022-12-14T13:03:11.579Z,72.88
2022-12-14T13:05:47.076Z,72.81
2022-12-14T13:08:23.695Z,73.15
2022-12-14T13:11:25.520Z,72.74
2022-12-14T13:13:46.453Z,73.09
2022-12-14T13:16:26.265Z,72.62
2022-12-14T13:19:19.085Z,72.61
2022-12-14T13:21:51.888Z,72.67
2022-12-14T13:24:21.941Z,72.82
2022-12-14T13:27:12.266Z,73.05
2022-12-14T13:30:00.450Z,73.16
2022-12-14T13:32:43.594Z,72.96
2022-12-14T13:35:30.128Z,73.49
2022-12-14T13:38:18.904Z,72.95
2022-12-14T13:41:19.538Z,73.24
2022-12-14T13:44:05.499Z,72.94
2022-12-14T13:46:34.817Z,72.76
2022-12-14T13:49:08.182Z,72.67
2022-12-14T13:51:39.056Z,72.55
2022-12-14T13:54:17.132Z,72.82
2022-12-14T13:56:45.213Z,72.36
2022-12-14T13:59:29.032Z,72.61
2022-12-14T14:01:59.896Z,72.74
2022-12-14T14:04:29.395Z,73.12
2022-12-14T14:06:58.015Z,72.55
2022-12-14T14:10:01.045Z,73.40
2022-12-14T14:12:40.591Z,72.91
2022-12-14T14:15:26.574Z,73.25
2022-12-14T14:18:02.631Z,72.88
2022-12-14T14:20:38.239Z,73.31
2022-12-14T14:23:29.809Z,73.25
2022-12-14T14:26:17.423Z,72.98
2022-12-14T14:28:49.468Z,72.76
2022-12-14T14:31:17.388Z,72.78
2022-12-14T14:33:50.163Z,73.28
2022-12-14T14:36:23.450Z,72.80
2022-12-14T14:38:51.908Z,73.11
2022-12-14T14:41:24.432Z,72.91
2022-12-14T14:43:54.653Z,72.75
2022-12-14T14:46:34.632Z,72.80
2022-12-14T14:49:04.429Z,72.98
2022-12-14T14:51:36.359Z,72.91
2022-12-14T14:57:34.235Z,72.86
2022-12-14T15:00:03.755Z,72.31
2022-12-14T15:02:34.311Z,72.75
2022-12-14T15:05:33.112Z,72.54
2022-12-14T15:07:55.828Z,72.42
2022-12-14T15:10:29.573Z,72.78
2022-12-14T15:13:02.521Z,73.00
2022-12-14T15:15:36.626Z,72.95
2022-12-14T15:18:23.795Z,72.91
2022-12-14T15:20:58.948Z,72.38
2022-12-14T15:23:31.743Z,72.45
2022-12-14T15:26:02.646Z,72.12
2022-12-14T15:28:32.205Z,72.62
2022-12-14T15:31:00.289Z,72.70
2022-12-14T15:33:32.238Z,72.89
2022-12-14T15:36:05.619Z,72.57
2022-12-14T15:38:34.929Z,72.89
2022-12-14T15:41:04.876Z,72.61
2022-12-14T15:43:33.891Z,72.84
2022-12-14T15:46:03.647Z,72.72
2022-12-14T15:48:34.268Z,72.48
2022-12-14T15:51:06.139Z,72.80
2022-12-14T15:53:36.444Z,72.80
2022-12-14T15:56:17.542Z,72.73
2022-12-14T15:58:45.835Z,72.69
2022-12-14T16:01:18.895Z,72.73
2022-12-14T16:03:49.878Z,72.56
2022-12-14T16:06:19.765Z,72.54
2022-12-14T16:08:53.120Z,72.77
2022-12-14T16:11:26.564Z,72.71
2022-12-14T16:13:57.897Z,72.60
2022-12-14T16:16:25.773Z,72.50
2022-12-14T16:18:54.281Z,72.70
2022-12-14T16:21:32.176Z,72.50
2022-12-14T16:24:01.055Z,72.53
2022-12-14T16:26:36.179Z,72.48
2022-12-14T16:29:09.799Z,72.73
2022-12-14T16:31:38.434Z,72.37
2022-12-14T16:34:14.972Z,72.43
2022-12-14T16:36:56.276Z,72.37
2022-12-14T16:39:37.839Z,72.69
2022-12-14T16:42:07.056Z,72.45
2022-12-14T16:44:40.712Z,72.29
2022-12-14T16:47:28.535Z,72.39
2022-12-14T16:49:59.542Z,72.25
2022-12-14T16:52:31.386Z,72.04
2022-12-14T16:55:14.131Z,72.58
2022-12-14T16:57:52.458Z,72.24
2022-12-14T17:00:23.389Z,72.53
2022-12-14T17:02:57.527Z,72.26
2022-12-14T17:05:30.143Z,72.26
2022-12-14T17:07:59.064Z,72.58
2022-12-14T17:10:27.100Z,72.23
2022-12-14T17:12:57.598Z,72.42
2022-12-14T17:15:26.730Z,72.63
2022-12-14T17:17:56.041Z,72.47
2022-12-14T17:20:26.202Z,72.32
2022-12-14T17:22:55.063Z,72.34
2022-12-14T17:25:23.946Z,72.37
2022-12-14T17:27:51.673Z,72.15
2022-12-14T17:30:21.643Z,72.37
2022-12-14T17:32:51.437Z,72.07
2022-12-14T17:35:21.360Z,71.90
2022-12-14T17:37:49.536Z,71.72
2022-12-14T17:40:17.887Z,72.38
2022-12-14T17:42:52.023Z,72.60
2022-12-14T17:45:22.754Z,72.42
2022-12-14T17:47:50.510Z,72.19
2022-12-14T17:50:19.448Z,72.42
2022-12-14T17:52:48.058Z,72.26
2022-12-14T17:55:18.621Z,72.53
2022-12-14T17:57:47.914Z,72.33
2022-12-14T18:00:38.614Z,72.21
2022-12-14T18:03:07.037Z,71.97
2022-12-14T18:05:34.994Z,72.01
2022-12-14T18:08:02.523Z,72.15
2022-12-14T18:10:30.138Z,72.31
2022-12-14T18:12:59.211Z,72.21
2022-12-14T18:15:28.905Z,72.14
2022-12-14T18:17:57.043Z,71.85
2022-12-14T18:20:25.072Z,72.36
2022-12-14T18:22:53.290Z,71.97
2022-12-14T18:25:31.565Z,72.07
2022-12-14T18:28:01.213Z,71.94
2022-12-14T18:30:35.048Z,72.21
2022-12-14T18:33:06.547Z,71.93
2022-12-14T18:35:34.831Z,72.17
2022-12-14T18:38:02.391Z,71.84
2022-12-14T18:40:30.758Z,71.88
2022-12-14T18:42:59.754Z,72.18
2022-12-14T18:45:29.833Z,71.96
2022-12-14T18:47:59.074Z,71.98
2022-12-14T18:50:26.640Z,72.24
2022-12-14T18:52:55.522Z,71.87
2022-12-14T18:55:25.054Z,71.85
2022-12-14T18:57:55.422Z,71.92
2022-12-14T19:00:26.495Z,72.13
2022-12-14T19:02:58.280Z,71.75
2022-12-14T19:05:26.622Z,71.64
2022-12-14T19:07:54.183Z,71.40
2022-12-14T19:10:24.111Z,71.64
2022-12-14T19:12:51.864Z,71.32
2022-12-14T19:15:21.771Z,71.25
2022-12-14T19:17:53.165Z,71.71
2022-12-14T19:20:24.479Z,71.37
2022-12-14T19:22:52.609Z,71.40
2022-12-14T19:25:21.670Z,71.51
2022-12-14T19:30:37.405Z,70.98
2022-12-14T19:33:06.396Z,70.71
2022-12-14T19:35:33.966Z,70.61
2022-12-14T19:38:01.610Z,70.53
2022-12-14T19:40:29.241Z,70.85
2022-12-14T19:42:56.980Z,70.75
2022-12-14T19:45:24.551Z,71.10
2022-12-14T19:47:52.151Z,71.42
2022-12-14T19:50:21.370Z,71.17
2022-12-14T19:52:49.069Z,71.01
2022-12-14T19:55:18.240Z,71.13
2022-12-14T19:57:45.898Z,70.69
2022-12-14T20:00:14.391Z,70.59
2022-12-14T20:02:42.203Z,70.82
2022-12-14T20:05:10.304Z,70.89
2022-12-14T20:07:43.855Z,70.68
2022-12-14T20:10:25.917Z,70.65
2022-12-14T20:12:56.362Z,70.46
2022-12-14T20:15:24.052Z,70.34
2022-12-14T20:17:52.922Z,70.37
2022-12-14T20:20:23.830Z,70.69
2022-12-14T20:22:55.743Z,70.51
2022-12-14T20:25:26.361Z,70.63
2022-12-14T20:27:53.950Z,70.53
2022-12-14T20:30:21.577Z,70.74
2022-12-14T20:32:49.539Z,70.79
2022-12-14T20:35:18.661Z,70.57
2022-12-14T20:37:46.449Z,70.54
2022-12-14T20:40:15.672Z,70.97
2022-12-14T20:42:43.229Z,70.99
2022-12-14T20:45:11.175Z,70.74
2022-12-14T20:47:38.697Z,70.24
2022-12-14T20:50:06.843Z,70.42
2022-12-14T20:52:34.391Z,70.59
2022-12-14T20:55:01.941Z,70.61
2022-12-14T20:57:33.006Z,71.43
2022-12-14T21:00:00.736Z,71.39
2022-12-14T21:02:28.793Z,71.26
2022-12-14T21:04:56.485Z,71.62
2022-12-14T21:07:26.239Z,71.95
2022-12-14T21:09:54.343Z,71.69
2022-12-14T21:12:20.963Z,71.43
2022-12-14T21:14:53.060Z,71.88
2022-12-14T21:17:22.982Z,71.41
2022-12-14T21:19:51.365Z,71.48
2022-12-14T21:22:21.405Z,71.51
2022-12-14T21:25:06.074Z,71.75
2022-12-14T21:27:37.999Z,71.39
2022-12-14T21:30:09.068Z,71.86
2022-12-14T21:32:37.543Z,71.61
2022-12-14T21:35:06.361Z,71.39
2022-12-14T21:37:33.985Z,71.70
2022-12-14T21:40:03.646Z,71.90
2022-12-14T21:42:30.369Z,71.76
2022-12-14T21:44:57.895Z,71.47
2022-12-14T21:47:29.531Z,72.10
2022-12-14T21:49:57.373Z,71.69
2022-12-14T21:52:27.698Z,71.72
2022-12-14T21:54:55.825Z,71.74
2022-12-14T21:57:42.907Z,71.31
2022-12-14T22:00:17.900Z,70.84
2022-12-14T22:02:46.954Z,70.66
2022-12-14T22:05:14.565Z,70.92
2022-12-14T22:07:42.163Z,70.70
2022-12-14T22:10:09.769Z,70.88
2022-12-14T22:12:37.332Z,71.12
2022-12-14T22:15:05.372Z,71.31
2022-12-14T22:17:32.958Z,71.98
2022-12-14T22:20:01.853Z,71.45
2022-12-14T22:22:29.403Z,71.63
2022-12-14T22:24:57.039Z,71.71
2022-12-14T22:27:24.544Z,71.92
2022-12-14T22:29:52.134Z,71.83
2022-12-14T22:32:19.789Z,71.82
2022-12-14T22:34:47.405Z,71.66
2022-12-14T22:37:16.604Z,71.90
2022-12-14T22:39:44.256Z,71.56
2022-12-14T22:42:15.395Z,71.49
2022-12-14T22:44:42.929Z,71.38
2022-12-14T22:47:10.483Z,71.26
2022-12-14T22:49:38.015Z,70.88
2022-12-14T22:52:05.570Z,70.83
2022-12-14T22:54:34.573Z,71.17
2022-12-14T22:57:06.133Z,70.71
2022-12-14T22:59:37.855Z,70.95
2022-12-14T23:02:05.960Z,71.04
2022-12-14T23:04:33.879Z,70.87
2022-12-14T23:07:01.481Z,71.23
2022-12-14T23:09:46.748Z,71.46
2022-12-14T23:12:33.101Z,71.71
2022-12-14T23:15:18.417Z,71.59
2022-12-14T23:18:03.676Z,71.29
2022-12-14T23:20:48.844Z,71.40
2022-12-14T23:23:34.702Z,71.62
2022-12-14T23:26:21.024Z,71.62
2022-12-14T23:29:07.532Z,71.41
2022-12-14T23:31:53.101Z,71.54
2022-12-14T23:34:38.232Z,71.59
2022-12-14T23:37:23.642Z,71.66
2022-12-14T23:40:09.050Z,71.41
2022-12-14T23:42:54.343Z,71.52
2022-12-14T23:45:41.029Z,71.18
2022-12-14T23:48:26.327Z,70.91
2022-12-14T23:51:11.580Z,70.84
2022-12-14T23:53:56.915Z,70.90
2022-12-14T23:56:42.016Z,71.47
2022-12-14T23:59:31.865Z,71.57
